createdAt,value
2019-01-20T00:02:26.128Z,25.43
2019-01-20T00:04:53.888Z,25.17
2019-01-20T00:07:21.450Z,24.27
2019-01-20T00:09:49.174Z,24.30
2019-01-20T00:12:16.797Z,23.47
2019-01-20T00:14:44.387Z,21.03
2019-01-20T00:17:12.271Z,22.67
2019-01-20T00:19:39.972Z,21.93
2019-01-20T00:22:07.675Z,21.87
2019-01-20T00:24:35.265Z,23.57
2019-01-20T00:27:02.831Z,22.53
2019-01-20T00:29:29.979Z,22.30
2019-01-20T00:31:57.650Z,21.90
2019-01-20T00:34:25.343Z,20.83
2019-01-20T00:36:52.916Z,22.53
2019-01-20T00:39:20.617Z,23.10
2019-01-20T00:41:48.241Z,24.47
2019-01-20T00:44:15.501Z,26.10
2019-01-20T00:46:43.032Z,25.67
2019-01-20T00:49:10.647Z,25.13
2019-01-20T00:51:37.900Z,25.90
2019-01-20T00:54:05.760Z,25.10
2019-01-20T00:56:33.371Z,25.27
2019-01-20T00:59:00.522Z,24.23
2019-01-20T01:01:27.959Z,23.40
2019-01-20T01:03:55.398Z,22.07
2019-01-20T01:06:22.944Z,23.40
2019-01-20T01:08:50.756Z,22.43
2019-01-20T01:11:18.437Z,22.63
2019-01-20T01:13:46.229Z,22.80
2019-01-20T01:16:13.869Z,23.10
2019-01-20T01:18:41.634Z,22.43
2019-01-20T01:21:09.244Z,22.13
2019-01-20T01:23:37.212Z,23.23
2019-01-20T01:26:04.532Z,22.27
2019-01-20T01:28:31.813Z,23.97
2019-01-20T01:30:59.707Z,21.77
2019-01-20T01:33:27.347Z,23.07
2019-01-20T01:35:54.832Z,22.60
2019-01-20T01:38:22.470Z,22.90
2019-01-20T01:40:50.224Z,23.60
2019-01-20T01:43:17.738Z,23.33
2019-01-20T01:45:45.172Z,23.43
2019-01-20T01:48:13.169Z,22.17
2019-01-20T01:50:40.736Z,23.83
2019-01-20T01:53:08.430Z,23.33
2019-01-20T01:55:36.098Z,23.57
2019-01-20T01:58:03.918Z,27.00
2019-01-20T02:00:31.686Z,24.60
2019-01-20T02:02:59.546Z,23.07
2019-01-20T02:05:27.161Z,26.47
2019-01-20T02:07:55.111Z,26.57
2019-01-20T02:10:22.701Z,25.20
2019-01-20T02:12:51.832Z,25.27
2019-01-20T02:15:20.935Z,25.27
2019-01-20T02:17:49.077Z,27.63
2019-01-20T02:20:21.971Z,31.67
2019-01-20T02:22:49.663Z,27.83
2019-01-20T02:25:17.472Z,30.50
2019-01-20T02:27:45.192Z,27.63
2019-01-20T02:30:18.980Z,27.83
2019-01-20T02:32:46.710Z,26.20
2019-01-20T02:35:17.749Z,24.63
2019-01-20T02:37:45.453Z,26.47
2019-01-20T02:40:13.783Z,25.70
2019-01-20T02:42:41.281Z,24.40
2019-01-20T02:45:10.230Z,24.97
2019-01-20T02:47:38.167Z,21.87
2019-01-20T02:50:06.931Z,21.53
2019-01-20T02:52:34.419Z,22.00
2019-01-20T02:55:01.944Z,21.40
2019-01-20T02:57:29.490Z,22.03
2019-01-20T02:59:57.605Z,21.63
2019-01-20T03:02:25.240Z,22.13
2019-01-20T03:04:52.999Z,22.63
2019-01-20T03:07:21.110Z,23.07
2019-01-20T03:09:48.766Z,23.63
2019-01-20T03:12:16.579Z,23.13
2019-01-20T03:14:44.269Z,24.13
2019-01-20T03:17:12.036Z,21.80
2019-01-20T03:19:39.773Z,23.70
2019-01-20T03:22:07.874Z,23.57
2019-01-20T03:24:36.055Z,22.87
2019-01-20T03:27:04.137Z,23.17
2019-01-20T03:29:32.015Z,23.93
2019-01-20T03:31:59.755Z,24.63
2019-01-20T03:34:27.636Z,24.00
2019-01-20T03:36:55.221Z,23.67
2019-01-20T03:39:23.126Z,24.27
2019-01-20T03:41:51.069Z,24.40
2019-01-20T03:44:18.966Z,23.57
2019-01-20T03:46:46.480Z,25.03
2019-01-20T03:49:14.199Z,23.80
2019-01-20T03:51:41.821Z,24.37
2019-01-20T03:54:09.410Z,24.43
2019-01-20T03:56:37.087Z,22.13
2019-01-20T03:59:04.643Z,23.03
2019-01-20T04:01:32.360Z,22.17
2019-01-20T04:04:00.049Z,22.13
2019-01-20T04:06:27.514Z,21.00
2019-01-20T04:08:55.315Z,21.53
2019-01-20T04:11:23.715Z,21.20
2019-01-20T04:13:51.548Z,24.77
2019-01-20T04:16:19.381Z,20.67
2019-01-20T04:18:47.351Z,22.63
2019-01-20T04:21:15.152Z,24.40
2019-01-20T04:23:43.102Z,23.07
2019-01-20T04:26:11.079Z,21.43
2019-01-20T04:28:39.323Z,22.43
2019-01-20T04:31:07.248Z,25.10
2019-01-20T04:33:35.409Z,24.73
2019-01-20T04:36:03.976Z,23.53
2019-01-20T04:38:38.315Z,23.37
2019-01-20T04:41:06.084Z,23.13
2019-01-20T04:43:34.778Z,23.43
2019-01-20T04:46:03.374Z,23.90
2019-01-20T04:48:31.618Z,22.43
2019-01-20T04:50:59.336Z,21.67
2019-01-20T04:53:28.816Z,24.20
2019-01-20T04:55:56.870Z,23.07
2019-01-20T04:58:25.122Z,24.43
2019-01-20T05:00:53.384Z,23.90
2019-01-20T05:03:21.622Z,23.17
2019-01-20T05:05:49.751Z,25.27
2019-01-20T05:08:18.420Z,24.77
2019-01-20T05:10:46.169Z,23.90
2019-01-20T05:13:14.218Z,24.17
2019-01-20T05:15:43.210Z,21.87
2019-01-20T05:18:11.390Z,21.67
2019-01-20T05:20:41.553Z,25.13
2019-01-20T05:23:09.942Z,23.23
2019-01-20T05:25:37.811Z,22.77
2019-01-20T05:28:06.319Z,22.70
2019-01-20T05:30:34.940Z,24.73
2019-01-20T05:33:03.839Z,24.60
2019-01-20T05:35:35.566Z,24.03
2019-01-20T05:38:04.265Z,24.30
2019-01-20T05:40:32.823Z,24.27
2019-01-20T05:43:03.460Z,24.60
2019-01-20T05:45:38.916Z,24.37
2019-01-20T05:48:07.873Z,22.67
2019-01-20T05:50:37.414Z,24.43
2019-01-20T05:53:08.463Z,24.17
2019-01-20T05:55:37.737Z,23.83
2019-01-20T05:58:07.326Z,25.10
2019-01-20T06:00:41.721Z,24.57
2019-01-20T06:03:11.111Z,26.00
2019-01-20T06:05:40.960Z,25.30
2019-01-20T06:08:10.513Z,26.27
2019-01-20T06:10:42.725Z,24.57
2019-01-20T06:13:11.386Z,25.43
2019-01-20T06:15:40.843Z,24.73
2019-01-20T06:18:09.659Z,25.07
2019-01-20T06:20:47.228Z,24.77
2019-01-20T06:23:20.828Z,23.93
2019-01-20T06:25:57.868Z,22.73
2019-01-20T06:28:45.459Z,23.80
2019-01-20T06:31:15.525Z,22.87
2019-01-20T06:33:47.593Z,22.90
2019-01-20T06:36:27.492Z,22.80
2019-01-20T06:38:58.242Z,22.93
2019-01-20T06:41:29.164Z,24.13
2019-01-20T06:43:57.797Z,23.97
2019-01-20T06:46:25.905Z,24.17
2019-01-20T06:48:54.854Z,24.10
2019-01-20T06:51:23.819Z,25.10
2019-01-20T06:53:52.024Z,25.70
2019-01-20T06:56:20.870Z,24.20
2019-01-20T06:58:50.727Z,24.30
2019-01-20T07:01:26.280Z,24.93
2019-01-20T07:04:00.734Z,24.40
2019-01-20T07:06:29.394Z,24.47
2019-01-20T07:09:01.344Z,24.73
2019-01-20T07:11:29.026Z,25.33
2019-01-20T07:20:36.863Z,23.57
2019-01-20T07:23:05.181Z,26.00
2019-01-20T07:25:35.883Z,25.20
2019-01-20T07:28:05.705Z,24.40
2019-01-20T07:30:36.045Z,25.87
2019-01-20T07:33:05.326Z,24.80
2019-01-20T07:35:33.666Z,25.57
2019-01-20T07:38:01.324Z,27.23
2019-01-20T07:40:28.888Z,26.97
2019-01-20T07:42:56.809Z,28.97
2019-01-20T07:45:26.612Z,27.83
2019-01-20T07:47:55.249Z,28.33
2019-01-20T07:50:28.696Z,29.97
2019-01-20T07:53:09.040Z,28.10
2019-01-20T07:55:36.737Z,29.70
2019-01-20T07:58:05.215Z,28.73
2019-01-20T08:00:33.565Z,28.83
2019-01-20T08:03:01.330Z,24.53
2019-01-20T08:05:29.494Z,23.10
2019-01-20T08:07:57.843Z,22.47
2019-01-20T08:10:28.083Z,26.50
2019-01-20T08:12:57.923Z,25.17
2019-01-20T08:15:26.965Z,26.13
2019-01-20T08:17:55.465Z,26.93
2019-01-20T08:20:24.150Z,26.80
2019-01-20T08:22:52.413Z,29.70
2019-01-20T08:25:20.383Z,29.90
2019-01-20T08:27:50.717Z,29.43
2019-01-20T08:30:20.325Z,27.80
2019-01-20T08:32:48.429Z,30.97
2019-01-20T08:35:17.100Z,29.70
2019-01-20T08:37:45.683Z,28.50
2019-01-20T08:40:18.399Z,31.40
2019-01-20T08:42:49.346Z,29.50
2019-01-20T08:45:31.418Z,27.43
2019-01-20T08:48:03.587Z,28.00
2019-01-20T08:50:31.494Z,25.93
2019-01-20T08:53:03.476Z,27.07
2019-01-20T08:55:31.729Z,25.93
2019-01-20T08:58:00.304Z,26.27
2019-01-20T09:00:31.128Z,25.73
2019-01-20T09:02:59.558Z,26.23
2019-01-20T09:05:29.174Z,27.03
2019-01-20T09:07:58.192Z,27.10
2019-01-20T09:10:27.534Z,27.67
2019-01-20T09:12:57.902Z,27.90
2019-01-20T09:15:26.003Z,28.17
2019-01-20T09:17:53.699Z,26.53
2019-01-20T09:20:21.934Z,28.23
2019-01-20T09:22:50.989Z,26.90
2019-01-20T09:25:18.966Z,27.90
2019-01-20T09:27:48.505Z,27.93
2019-01-20T09:30:18.417Z,30.20
2019-01-20T09:32:46.187Z,27.27
2019-01-20T09:35:13.979Z,29.53
2019-01-20T09:37:42.219Z,25.77
2019-01-20T09:40:11.397Z,24.63
2019-01-20T09:42:40.508Z,24.40
2019-01-20T09:45:12.996Z,25.50
2019-01-20T09:47:41.107Z,23.60
2019-01-20T09:50:09.185Z,24.17
2019-01-20T09:52:39.254Z,24.97
2019-01-20T09:55:09.441Z,26.77
2019-01-20T09:57:39.435Z,26.13
2019-01-20T10:00:10.049Z,25.33
2019-01-20T10:02:38.011Z,26.23
2019-01-20T10:05:05.785Z,27.37
2019-01-20T10:07:34.735Z,27.07
2019-01-20T10:10:02.907Z,27.87
2019-01-20T10:12:30.813Z,28.50
2019-01-20T10:15:01.398Z,26.00
2019-01-20T10:17:29.181Z,27.57
2019-01-20T10:19:56.547Z,27.47
2019-01-20T10:22:24.121Z,27.70
2019-01-20T10:24:52.436Z,26.20
2019-01-20T10:27:20.223Z,26.73
2019-01-20T10:29:48.234Z,27.93
2019-01-20T10:32:16.279Z,26.83
2019-01-20T10:34:49.760Z,27.03
2019-01-20T10:37:17.921Z,28.97
2019-01-20T10:39:45.575Z,29.60
2019-01-20T10:42:13.419Z,28.43
2019-01-20T10:44:41.647Z,28.17
2019-01-20T10:47:09.444Z,29.67
2019-01-20T10:49:37.464Z,30.73
2019-01-20T10:52:05.573Z,32.33
2019-01-20T10:54:33.419Z,27.27
2019-01-20T10:57:02.508Z,25.80
2019-01-20T10:59:30.275Z,26.47
2019-01-20T11:01:58.432Z,26.10
2019-01-20T11:04:26.621Z,26.90
2019-01-20T11:06:55.111Z,27.50
2019-01-20T11:09:23.117Z,25.90
2019-01-20T11:11:51.079Z,25.50
2019-01-20T11:14:21.891Z,26.83
2019-01-20T11:16:49.601Z,26.10
2019-01-20T11:19:17.552Z,27.03
2019-01-20T11:21:45.920Z,28.60
2019-01-20T11:24:13.598Z,27.40
2019-01-20T11:26:41.150Z,27.27
2019-01-20T11:29:09.436Z,29.00
2019-01-20T11:31:37.581Z,28.20
2019-01-20T11:34:05.377Z,28.47
2019-01-20T11:36:33.499Z,27.93
2019-01-20T11:39:01.561Z,29.43
2019-01-20T11:41:29.814Z,32.50
2019-01-20T11:44:16.548Z,32.07
2019-01-20T11:46:39.107Z,31.27
2019-01-20T11:49:11.207Z,32.67
2019-01-20T11:51:41.412Z,31.33
2019-01-20T11:54:15.578Z,31.80
2019-01-20T11:56:58.000Z,30.43
2019-01-20T11:59:23.245Z,30.37
2019-01-20T12:01:51.299Z,31.43
2019-01-20T12:04:21.562Z,41.07
2019-01-20T12:06:50.193Z,33.20
2019-01-20T12:09:18.014Z,23.63
2019-01-20T12:11:45.935Z,24.43
2019-01-20T12:14:13.647Z,24.70
2019-01-20T12:16:41.634Z,25.80
2019-01-20T12:19:09.659Z,26.87
2019-01-20T12:21:38.131Z,28.03
2019-01-20T12:24:06.176Z,28.40
2019-01-20T12:26:48.823Z,26.83
2019-01-20T12:29:17.448Z,27.93
2019-01-20T12:31:47.587Z,27.33
2019-01-20T12:34:15.759Z,26.03
2019-01-20T12:36:43.569Z,26.03
2019-01-20T12:39:11.657Z,28.33
2019-01-20T12:41:39.339Z,30.83
2019-01-20T12:44:09.891Z,29.87
2019-01-20T12:46:38.093Z,27.60
2019-01-20T12:49:08.143Z,29.17
2019-01-20T12:51:36.062Z,37.47
2019-01-20T12:54:04.926Z,30.13
2019-01-20T12:56:35.028Z,28.40
2019-01-20T12:59:04.013Z,28.87
2019-01-20T13:01:36.789Z,31.00
2019-01-20T13:04:04.820Z,30.00
2019-01-20T13:06:35.439Z,29.40
2019-01-20T13:09:07.460Z,29.63
2019-01-20T13:11:35.548Z,28.00
2019-01-20T13:14:03.716Z,29.33
2019-01-20T13:16:49.566Z,28.37
2019-01-20T13:19:21.504Z,27.30
2019-01-20T13:21:50.010Z,29.47
2019-01-20T13:24:18.228Z,30.53
2019-01-20T13:26:46.160Z,31.33
2019-01-20T13:29:13.882Z,26.77
2019-01-20T13:31:41.740Z,25.20
2019-01-20T13:34:09.656Z,23.90
2019-01-20T13:36:37.425Z,24.63
2019-01-20T13:39:10.627Z,25.10
2019-01-20T13:41:38.404Z,25.40
2019-01-20T13:44:05.996Z,26.50
2019-01-20T13:46:36.755Z,25.77
2019-01-20T13:49:04.526Z,25.50
2019-01-20T13:51:32.614Z,25.83
2019-01-20T13:54:00.646Z,23.87
2019-01-20T13:56:28.932Z,26.30
2019-01-20T13:58:56.954Z,25.33
2019-01-20T14:01:27.097Z,25.27
2019-01-20T14:03:54.964Z,25.40
2019-01-20T14:06:22.896Z,22.83
2019-01-20T14:08:50.904Z,22.40
2019-01-20T14:11:19.072Z,25.47
2019-01-20T14:13:46.680Z,25.30
2019-01-20T14:16:14.539Z,29.47
2019-01-20T14:18:45.328Z,27.47
2019-01-20T14:21:12.420Z,29.50
2019-01-20T14:23:41.050Z,26.80
2019-01-20T14:26:09.141Z,27.77
2019-01-20T14:28:36.756Z,27.87
2019-01-20T14:31:05.317Z,29.03
2019-01-20T14:33:34.101Z,30.37
2019-01-20T14:36:02.023Z,32.47
2019-01-20T14:38:29.997Z,34.83
2019-01-20T14:40:58.143Z,33.83
2019-01-20T14:43:25.827Z,35.13
2019-01-20T14:45:54.221Z,35.27
2019-01-20T14:48:29.654Z,32.73
2019-01-20T14:50:57.565Z,32.07
2019-01-20T14:53:28.319Z,33.17
2019-01-20T14:59:00.204Z,31.93
2019-01-20T15:01:29.233Z,31.47
2019-01-20T15:03:56.870Z,33.73
2019-01-20T15:06:25.646Z,33.07
2019-01-20T15:08:54.137Z,34.20
2019-01-20T15:12:08.005Z,33.27
2019-01-20T15:14:18.672Z,34.00
2019-01-20T15:16:46.856Z,32.83
2019-01-20T15:19:14.884Z,34.10
2019-01-20T15:21:42.749Z,33.70
2019-01-20T15:24:11.255Z,33.47
2019-01-20T15:26:38.879Z,34.00
2019-01-20T15:29:07.269Z,33.23
2019-01-20T15:31:38.194Z,31.97
2019-01-20T15:34:06.089Z,33.43
2019-01-20T15:36:34.120Z,32.43
2019-01-20T15:39:04.931Z,33.17
2019-01-20T15:41:33.461Z,34.07
2019-01-20T15:44:01.801Z,34.13
2019-01-20T15:46:31.701Z,34.17
2019-01-20T15:48:59.881Z,35.77
2019-01-20T15:51:27.385Z,36.67
2019-01-20T15:53:55.087Z,35.27
2019-01-20T15:56:23.403Z,35.70
2019-01-20T15:58:51.792Z,34.83
2019-01-20T16:01:19.753Z,35.20
2019-01-20T16:03:47.397Z,34.00
2019-01-20T16:06:15.937Z,33.37
2019-01-20T16:08:43.575Z,33.80
2019-01-20T16:11:11.271Z,32.43
2019-01-20T16:13:39.217Z,33.60
2019-01-20T16:16:07.012Z,34.13
2019-01-20T16:18:34.472Z,33.00
2019-01-20T16:21:02.033Z,32.17
2019-01-20T16:23:29.465Z,31.93
2019-01-20T16:25:57.207Z,32.03
2019-01-20T16:28:25.122Z,32.83
2019-01-20T16:34:45.092Z,34.30
2019-01-20T16:37:12.899Z,34.97
2019-01-20T16:39:45.579Z,32.87
2019-01-20T16:42:10.510Z,33.30
2019-01-20T16:44:37.981Z,33.50
2019-01-20T16:47:05.869Z,36.40
2019-01-20T16:49:33.689Z,33.37
2019-01-20T16:52:01.191Z,33.33
2019-01-20T17:00:50.998Z,33.10
2019-01-20T17:03:24.142Z,35.17
2019-01-20T17:05:53.491Z,33.10
2019-01-20T17:08:51.664Z,34.27
2019-01-20T17:11:18.526Z,30.77
2019-01-20T17:13:46.076Z,29.97
2019-01-20T17:16:13.793Z,30.30
2019-01-20T17:18:41.488Z,31.10
2019-01-20T17:21:09.575Z,30.43
2019-01-20T17:23:37.579Z,30.53
2019-01-20T17:26:05.140Z,30.93
2019-01-20T17:28:32.806Z,30.77
2019-01-20T17:31:02.354Z,31.03
2019-01-20T17:33:30.368Z,31.17
2019-01-20T17:35:58.894Z,29.97
2019-01-20T17:38:27.925Z,32.80
2019-01-20T17:41:03.142Z,35.53
2019-01-20T17:43:30.918Z,30.60
2019-01-20T17:45:58.762Z,33.13
2019-01-20T17:48:27.270Z,30.93
2019-01-20T17:50:55.266Z,32.57
2019-01-20T17:53:23.143Z,29.83
2019-01-20T17:55:51.151Z,32.87
2019-01-20T17:58:19.356Z,35.13
2019-01-20T18:00:50.088Z,33.23
2019-01-20T18:03:18.213Z,33.40
2019-01-20T18:05:46.406Z,34.17
2019-01-20T18:08:14.208Z,34.00
2019-01-20T18:10:42.529Z,32.87
2019-01-20T18:13:10.769Z,32.77
2019-01-20T18:15:38.760Z,32.23
2019-01-20T18:18:08.584Z,32.37
2019-01-20T18:20:36.444Z,35.33
2019-01-20T18:23:04.811Z,35.83
2019-01-20T18:25:32.818Z,39.93
2019-01-20T18:28:01.389Z,41.17
2019-01-20T18:30:29.613Z,40.20
2019-01-20T18:33:03.276Z,36.07
2019-01-20T18:38:42.110Z,34.77
2019-01-20T18:41:18.664Z,36.10
2019-01-20T18:43:47.848Z,34.33
2019-01-20T18:46:16.414Z,36.47
2019-01-20T18:48:53.205Z,30.30
2019-01-20T18:51:36.653Z,30.37
2019-01-20T18:54:12.630Z,27.77
2019-01-20T18:56:42.354Z,29.90
2019-01-20T19:08:44.325Z,31.40
2019-01-20T19:14:57.655Z,31.30
2019-01-20T19:20:46.083Z,31.63
2019-01-20T19:23:45.203Z,32.40
2019-01-20T19:26:14.962Z,32.53
2019-01-20T19:29:22.519Z,34.20
2019-01-20T19:32:09.319Z,33.43
2019-01-20T19:38:08.664Z,37.87
2019-01-20T19:40:44.399Z,38.80
2019-01-20T19:43:16.492Z,38.93
2019-01-20T19:45:47.428Z,39.57
2019-01-20T19:48:20.202Z,37.27
2019-01-20T19:50:48.902Z,38.93
2019-01-20T19:53:19.383Z,36.53
2019-01-20T19:55:55.186Z,38.17
2019-01-20T19:58:30.646Z,39.93
2019-01-20T20:01:01.653Z,39.43
2019-01-20T20:03:44.401Z,39.80
2019-01-20T20:06:29.762Z,40.50
2019-01-20T20:09:09.091Z,38.53
2019-01-20T20:11:39.675Z,37.70
2019-01-20T20:14:13.890Z,36.97
2019-01-20T20:16:55.460Z,35.33
2019-01-20T20:19:22.221Z,35.40
2019-01-20T20:21:54.628Z,34.80
2019-01-20T20:24:25.628Z,35.07
2019-01-20T20:26:55.786Z,36.17
2019-01-20T20:29:25.442Z,36.03
2019-01-20T20:31:54.643Z,37.43
2019-01-20T20:34:24.208Z,35.37
2019-01-20T20:37:00.395Z,36.93
2019-01-20T20:39:42.238Z,36.30
2019-01-20T20:42:11.712Z,37.37
2019-01-20T20:44:42.156Z,38.20
2019-01-20T20:47:21.681Z,38.47
2019-01-20T20:50:10.849Z,38.13
2019-01-20T20:53:03.282Z,40.00
2019-01-20T20:55:32.576Z,40.97
2019-01-20T20:58:06.594Z,42.17
2019-01-20T21:00:50.493Z,40.00
2019-01-20T21:03:32.711Z,40.77
2019-01-20T21:07:03.687Z,40.07
2019-01-20T21:09:25.172Z,41.47
2019-01-20T21:12:00.872Z,41.07
2019-01-20T21:14:30.231Z,40.33
2019-01-20T21:16:58.980Z,38.53
2019-01-20T21:19:34.027Z,38.37
2019-01-20T21:22:25.084Z,37.00
2019-01-20T21:25:02.265Z,38.73
2019-01-20T21:27:31.314Z,39.50
2019-01-20T21:29:59.685Z,38.87
2019-01-20T21:32:28.962Z,36.83
2019-01-20T21:34:56.783Z,38.60
2019-01-20T21:37:24.396Z,37.90
2019-01-20T21:39:52.230Z,38.73
2019-01-20T21:42:20.008Z,37.27
2019-01-20T21:44:47.747Z,37.17
2019-01-20T21:47:15.154Z,37.97
2019-01-20T21:49:43.391Z,39.17
2019-01-20T21:52:10.956Z,40.70
2019-01-20T21:54:38.688Z,38.30
2019-01-20T21:57:06.521Z,38.77
2019-01-20T21:59:34.431Z,38.50
2019-01-20T22:02:02.301Z,37.57
2019-01-20T22:04:30.331Z,36.23
2019-01-20T22:06:58.617Z,36.13
2019-01-20T22:09:26.677Z,36.37
2019-01-20T22:11:55.048Z,36.40
2019-01-20T22:14:22.980Z,34.27
2019-01-20T22:16:52.775Z,36.87
2019-01-20T22:19:20.860Z,34.20
2019-01-20T22:21:48.821Z,34.80
2019-01-20T22:24:16.862Z,35.10
2019-01-20T22:26:44.735Z,33.57
2019-01-20T22:29:12.831Z,33.67
2019-01-20T22:31:41.352Z,33.30
2019-01-20T22:34:09.734Z,31.93
2019-01-20T22:36:37.649Z,34.10
2019-01-20T22:39:07.324Z,34.47
2019-01-20T22:41:35.344Z,36.60
2019-01-20T22:44:03.494Z,37.17
2019-01-20T22:46:31.430Z,35.83
2019-01-20T22:48:59.454Z,35.20
2019-01-20T22:51:27.371Z,35.13
2019-01-20T22:53:55.305Z,33.73
2019-01-20T22:56:23.179Z,33.77
2019-01-20T22:58:51.081Z,33.10
2019-01-20T23:01:22.387Z,32.50
2019-01-20T23:03:50.201Z,31.10
2019-01-20T23:06:18.054Z,32.83
2019-01-20T23:08:45.841Z,31.93
2019-01-20T23:11:13.634Z,34.87
2019-01-20T23:13:41.462Z,37.80
2019-01-20T23:16:09.371Z,39.30
2019-01-20T23:18:37.129Z,39.83
2019-01-20T23:21:04.758Z,40.37
2019-01-20T23:23:32.554Z,37.33
2019-01-20T23:26:02.892Z,39.90
2019-01-20T23:28:30.782Z,38.67
2019-01-20T23:30:58.798Z,37.73
2019-01-20T23:33:26.275Z,38.50
2019-01-20T23:35:53.948Z,38.40
2019-01-20T23:38:21.980Z,39.43
2019-01-20T23:40:49.861Z,40.20
2019-01-20T23:43:18.181Z,40.33
2019-01-20T23:45:46.138Z,38.00
2019-01-20T23:48:14.113Z,38.30
2019-01-20T23:50:42.040Z,39.33
2019-01-20T23:53:09.619Z,38.23
2019-01-20T23:55:37.701Z,40.17
2019-01-20T23:58:05.379Z,39.57
